Time;durP1;ratioP1;P1;durP2;ratioP2;P2;SDS_P1;SDS_P2;PMS_P1;PMS_P2;Temp;Humidity;BMP_temperature;BMP_pressure;BME280_temperature;BME280_humidity;BME280_pressure;Samples;Min_cycle;Max_cycle;Signal;HPM_P1;HPM_P2
2024/03/31 00:01:17;;;;;;;8.15;6.20;;;10.00;99.90;;;;;;5053123;28;20427;-77
2024/03/31 00:03:44;;;;;;;7.90;5.80;;;10.00;99.90;;;;;;5054548;28;20032;-77
2024/03/31 00:06:11;;;;;;;8.10;6.03;;;10.00;99.90;;;;;;5053900;28;20025;-77
2024/03/31 00:08:37;;;;;;;7.45;5.78;;;10.00;99.90;;;;;;5055026;28;20021;-77
2024/03/31 00:11:04;;;;;;;8.20;5.95;;;10.00;99.90;;;;;;5054418;28;20079;-77
2024/03/31 00:13:29;;;;;;;7.57;5.75;;;10.00;99.90;;;;;;5053081;28;20025;-77
2024/03/31 00:15:55;;;;;;;7.60;5.43;;;10.10;99.90;;;;;;5054156;28;20025;-78
2024/03/31 00:18:21;;;;;;;8.38;5.72;;;10.10;99.90;;;;;;5054250;28;20056;-77
2024/03/31 00:20:53;;;;;;;7.47;5.85;;;10.10;99.90;;;;;;5053828;28;20760;-76
2024/03/31 00:23:19;;;;;;;8.05;6.22;;;10.10;99.90;;;;;;5054196;28;20025;-77
2024/03/31 00:25:46;;;;;;;7.95;6.13;;;10.10;99.90;;;;;;5054074;28;20053;-78
2024/03/31 00:28:12;;;;;;;8.90;6.30;;;10.10;99.90;;;;;;5036178;28;20024;-77
2024/03/31 00:30:37;;;;;;;8.25;6.28;;;10.10;99.90;;;;;;5054050;28;20116;-77
2024/03/31 00:33:03;;;;;;;8.48;6.65;;;10.20;99.90;;;;;;5053768;28;20016;-77
2024/03/31 00:35:29;;;;;;;10.70;7.47;;;10.10;99.90;;;;;;5054296;28;20456;-77
2024/03/31 00:37:54;;;;;;;8.50;6.80;;;10.20;99.90;;;;;;5053397;28;20025;-77
2024/03/31 00:40:20;;;;;;;10.75;7.88;;;10.20;99.90;;;;;;5054260;28;20459;-77
2024/03/31 00:42:46;;;;;;;9.00;7.03;;;10.20;99.90;;;;;;5035330;28;20028;-76
2024/03/31 00:45:12;;;;;;;9.07;7.13;;;10.20;99.90;;;;;;5054179;28;20096;-77
2024/03/31 00:47:38;;;;;;;10.30;7.70;;;10.20;99.90;;;;;;5053169;28;20055;-77
2024/03/31 00:50:04;;;;;;;10.27;7.30;;;10.20;99.90;;;;;;5053895;28;20028;-76
2024/03/31 00:52:29;;;;;;;11.40;8.23;;;10.20;99.90;;;;;;5052934;28;20028;-77
2024/03/31 00:54:55;;;;;;;12.75;8.93;;;10.20;99.90;;;;;;5053981;28;20032;-77
2024/03/31 00:57:21;;;;;;;12.85;9.43;;;10.20;99.90;;;;;;5052852;28;20025;-77
2024/03/31 00:59:46;;;;;;;14.02;9.43;;;10.20;99.90;;;;;;5053841;28;20037;-77
2024/03/31 01:02:12;;;;;;;13.27;9.80;;;10.20;99.90;;;;;;5052772;28;20387;-77
2024/03/31 01:04:38;;;;;;;14.68;9.98;;;10.20;99.90;;;;;;5053734;28;20075;-77
2024/03/31 01:07:03;;;;;;;13.32;9.50;;;10.20;99.90;;;;;;5052601;28;20500;-77
2024/03/31 01:09:32;;;;;;;15.65;10.50;;;10.20;99.90;;;;;;5053748;28;20067;-77
2024/03/31 01:11:58;;;;;;;14.15;10.25;;;10.20;99.90;;;;;;5052898;28;20096;-77
2024/03/31 01:14:25;;;;;;;13.82;10.32;;;10.20;99.90;;;;;;5053444;28;20435;-77
2024/03/31 01:16:50;;;;;;;14.57;10.82;;;10.20;99.90;;;;;;5053136;28;20033;-77
2024/03/31 01:19:16;;;;;;;14.95;10.82;;;10.20;99.90;;;;;;5052975;28;20104;-77
2024/03/31 01:21:42;;;;;;;15.60;10.60;;;10.20;99.90;;;;;;5052800;28;20435;-77
2024/03/31 01:24:07;;;;;;;14.52;10.30;;;10.20;99.90;;;;;;5053254;28;20534;-77
2024/03/31 01:26:35;;;;;;;15.48;11.00;;;10.20;99.90;;;;;;5052759;28;20108;-77
2024/03/31 01:29:01;;;;;;;15.60;10.88;;;10.20;99.90;;;;;;5052924;28;20029;-77
2024/03/31 01:31:26;;;;;;;14.60;10.57;;;10.20;99.90;;;;;;5052586;28;20029;-76
2024/03/31 01:33:53;;;;;;;14.05;10.13;;;10.20;99.90;;;;;;5052769;28;20566;-77
2024/03/31 01:36:18;;;;;;;18.75;11.07;;;10.20;99.90;;;;;;5052496;28;20628;-77
2024/03/31 01:38:44;;;;;;;16.20;11.07;;;10.20;99.90;;;;;;5052733;28;20428;-77
2024/03/31 01:41:09;;;;;;;16.30;11.50;;;10.20;99.90;;;;;;5052642;28;20033;-77
2024/03/31 01:43:37;;;;;;;18.17;11.80;;;10.20;99.90;;;;;;5053128;28;20021;-77
2024/03/31 01:46:02;;;;;;;17.30;10.93;;;10.20;99.90;;;;;;5052485;28;20045;-77
2024/03/31 01:48:28;;;;;;;19.15;11.45;;;10.20;99.90;;;;;;5053037;28;20143;-77
2024/03/31 01:50:54;;;;;;;19.73;11.95;;;10.20;99.90;;;;;;5052415;28;20017;-77
2024/03/31 01:53:19;;;;;;;17.40;11.30;;;10.20;99.90;;;;;;5052774;28;20104;-77
2024/03/31 01:55:45;;;;;;;17.75;11.30;;;10.20;99.90;;;;;;5052955;28;20386;-77
2024/03/31 01:58:11;;;;;;;19.83;11.32;;;10.20;99.90;;;;;;5051687;28;20041;-77
2024/03/31 02:00:36;;;;;;;17.25;11.60;;;10.10;99.90;;;;;;5034378;28;20051;-77
2024/03/31 02:03:02;;;;;;;16.85;10.85;;;10.10;99.90;;;;;;5051863;28;20021;-77
2024/03/31 02:05:29;;;;;;;16.05;10.77;;;10.10;99.90;;;;;;5034737;28;20021;-77
2024/03/31 02:07:55;;;;;;;15.27;10.38;;;10.10;99.90;;;;;;5051877;28;20048;-77
2024/03/31 02:10:21;;;;;;;15.93;9.90;;;10.10;99.90;;;;;;5054729;28;20470;-77
2024/03/31 02:12:46;;;;;;;13.35;9.40;;;10.10;99.90;;;;;;5053841;28;20025;-78
2024/03/31 02:15:12;;;;;;;13.15;9.20;;;10.00;99.90;;;;;;5053723;28;20024;-77
2024/03/31 02:17:38;;;;;;;11.43;7.97;;;10.00;99.90;;;;;;5051953;28;20069;-77
2024/03/31 02:20:06;;;;;;;10.88;7.72;;;10.00;99.90;;;;;;5052124;28;20021;-77
2024/03/31 02:22:32;;;;;;;11.20;7.80;;;10.00;99.90;;;;;;5051832;28;20095;-77
2024/03/31 02:24:58;;;;;;;11.32;7.82;;;10.00;99.90;;;;;;5052172;28;20017;-77
2024/03/31 02:27:24;;;;;;;11.85;7.68;;;10.00;99.90;;;;;;5051879;28;20078;-77
2024/03/31 02:29:49;;;;;;;12.82;8.30;;;9.90;99.90;;;;;;5052113;28;20017;-77
2024/03/31 02:32:15;;;;;;;13.55;7.82;;;9.90;99.90;;;;;;5051678;28;20462;-77
2024/03/31 02:34:40;;;;;;;12.35;8.13;;;9.90;99.90;;;;;;5051788;28;20017;-77
2024/03/31 02:37:06;;;;;;;11.60;8.07;;;9.90;99.90;;;;;;5051527;28;20028;-77
2024/03/31 02:39:32;;;;;;;12.05;8.00;;;9.90;99.90;;;;;;5052068;28;20024;-77
2024/03/31 02:41:59;;;;;;;11.85;8.20;;;9.90;99.90;;;;;;5051596;28;20032;-77
2024/03/31 02:44:24;;;;;;;11.48;7.97;;;9.90;99.90;;;;;;5052117;28;20021;-77
2024/03/31 02:46:50;;;;;;;10.75;7.20;;;9.90;99.90;;;;;;5051580;28;20418;-77
2024/03/31 02:49:16;;;;;;;10.30;7.65;;;9.90;99.90;;;;;;5051780;28;20112;-77
2024/03/31 02:51:41;;;;;;;10.38;7.13;;;9.90;99.90;;;;;;5051512;28;20033;-77
2024/03/31 02:54:07;;;;;;;10.00;6.82;;;9.90;99.90;;;;;;5052017;28;20059;-77
2024/03/31 02:56:33;;;;;;;9.02;6.05;;;9.90;99.90;;;;;;5051365;28;20032;-77
2024/03/31 02:58:59;;;;;;;8.98;6.47;;;9.90;99.90;;;;;;5051339;28;20041;-77
2024/03/31 03:01:25;;;;;;;9.05;5.85;;;9.90;99.90;;;;;;5051430;28;20025;-77
2024/03/31 03:03:53;;;;;;;10.00;6.90;;;9.90;99.90;;;;;;5033743;28;20070;-77
2024/03/31 03:06:19;;;;;;;9.63;7.05;;;9.90;99.90;;;;;;5051263;28;20063;-77
2024/03/31 03:08:44;;;;;;;10.27;7.30;;;9.90;99.90;;;;;;5051777;28;20056;-77
2024/03/31 03:11:10;;;;;;;11.38;7.40;;;9.90;99.90;;;;;;5051327;28;20054;-77
2024/03/31 03:13:36;;;;;;;11.20;7.88;;;9.90;99.90;;;;;;5054663;28;20025;-77
2024/03/31 03:16:04;;;;;;;11.57;7.47;;;9.90;99.90;;;;;;5055547;28;20048;-77
2024/03/31 03:18:30;;;;;;;11.48;7.63;;;9.90;99.90;;;;;;5054915;28;20025;-77
2024/03/31 03:20:57;;;;;;;10.90;7.47;;;9.80;99.90;;;;;;5055446;28;20044;-77
2024/03/31 03:23:23;;;;;;;10.80;7.80;;;9.80;99.90;;;;;;5055128;28;20021;-77
2024/03/31 03:25:59;;;;;;;10.88;7.47;;;9.80;99.90;;;;;;5055430;28;20024;-77
2024/03/31 03:28:24;;;;;;;10.48;7.20;;;9.80;99.90;;;;;;5054982;28;20489;-77
2024/03/31 03:30:50;;;;;;;9.95;7.55;;;9.80;99.90;;;;;;5055299;28;20044;-77
2024/03/31 03:33:16;;;;;;;10.18;8.02;;;9.70;99.90;;;;;;5054877;28;20025;-77
2024/03/31 03:35:42;;;;;;;9.27;7.10;;;9.70;99.90;;;;;;5055132;28;20033;-77
2024/03/31 03:38:08;;;;;;;10.93;7.80;;;9.70;99.90;;;;;;5054883;28;20021;-77
2024/03/31 03:40:34;;;;;;;10.95;8.13;;;9.70;99.90;;;;;;5055446;28;20045;-77
2024/03/31 03:43:01;;;;;;;10.18;7.38;;;9.70;99.90;;;;;;5054857;28;20052;-77
2024/03/31 03:45:27;;;;;;;9.63;7.38;;;9.70;99.90;;;;;;5055417;28;20036;-77
2024/03/31 03:47:53;;;;;;;10.45;7.65;;;9.70;99.90;;;;;;5054927;28;20424;-77
2024/03/31 03:50:18;;;;;;;10.43;7.70;;;9.60;99.90;;;;;;5055692;28;20505;-77
2024/03/31 03:52:44;;;;;;;11.13;8.00;;;9.70;99.90;;;;;;5056111;28;20540;-78
2024/03/31 03:55:09;;;;;;;10.43;7.70;;;9.70;99.90;;;;;;5038355;28;20383;-78
2024/03/31 03:57:35;;;;;;;8.57;6.45;;;9.60;99.90;;;;;;5056640;28;20021;-77
2024/03/31 04:00:03;;;;;;;7.90;6.10;;;9.60;99.90;;;;;;5056029;28;20065;-77
2024/03/31 04:02:28;;;;;;;9.02;6.70;;;9.60;99.90;;;;;;5056221;28;20025;-77
2024/03/31 04:04:54;;;;;;;9.35;7.15;;;9.60;99.90;;;;;;5057449;28;20078;-77
2024/03/31 04:07:19;;;;;;;10.15;6.97;;;9.60;99.90;;;;;;5056164;28;20386;-77
2024/03/31 04:09:45;;;;;;;9.90;7.68;;;9.60;99.90;;;;;;5056399;28;20465;-77
2024/03/31 04:12:11;;;;;;;10.27;8.02;;;9.60;99.90;;;;;;5055609;28;20027;-77
2024/03/31 04:14:37;;;;;;;9.48;7.10;;;9.60;99.90;;;;;;5055974;28;20021;-78
2024/03/31 04:17:03;;;;;;;11.07;8.07;;;9.60;99.90;;;;;;5037884;28;20056;-77
2024/03/31 04:19:28;;;;;;;10.02;7.55;;;9.60;99.90;;;;;;5056636;28;20493;-77
2024/03/31 04:21:54;;;;;;;10.75;7.80;;;9.50;99.90;;;;;;5056042;28;20029;-77
2024/03/31 04:24:20;;;;;;;9.05;7.32;;;9.60;99.90;;;;;;5038781;28;20017;-77
2024/03/31 04:26:45;;;;;;;10.32;7.93;;;9.60;99.90;;;;;;5055582;28;20075;-77
2024/03/31 04:29:11;;;;;;;10.27;7.68;;;9.60;99.90;;;;;;5056167;28;20051;-77
2024/03/31 04:31:53;;;;;;;8.95;7.13;;;9.60;99.90;;;;;;5055774;28;20021;-77
2024/03/31 04:34:20;;;;;;;9.80;7.53;;;9.60;99.90;;;;;;5057278;28;20095;-77
2024/03/31 04:36:45;;;;;;;8.70;7.20;;;9.50;99.90;;;;;;5055828;28;20279;-77
2024/03/31 04:39:11;;;;;;;9.32;6.80;;;9.60;99.90;;;;;;5038390;28;20306;-77
2024/03/31 04:41:37;;;;;;;9.20;7.25;;;9.60;99.90;;;;;;5055269;28;20028;-77
2024/03/31 04:44:02;;;;;;;9.80;7.30;;;9.50;99.90;;;;;;5056520;28;20025;-77
2024/03/31 04:46:28;;;;;;;8.90;6.38;;;9.50;99.90;;;;;;5055340;28;20108;-76
2024/03/31 04:48:53;;;;;;;8.68;6.68;;;9.50;99.90;;;;;;5054529;28;20490;-77
2024/03/31 04:51:19;;;;;;;8.77;7.00;;;9.50;99.90;;;;;;5036722;28;20033;-77
2024/03/31 04:53:45;;;;;;;8.60;6.95;;;9.50;99.90;;;;;;5053952;28;20021;-77
2024/03/31 04:56:10;;;;;;;10.23;7.57;;;9.50;99.90;;;;;;5053975;28;20515;-77
2024/03/31 04:58:36;;;;;;;9.18;6.88;;;9.50;99.90;;;;;;5053138;28;20418;-77
2024/03/31 05:01:02;;;;;;;8.75;7.35;;;9.50;99.90;;;;;;5053867;28;20025;-77
2024/03/31 05:03:27;;;;;;;9.23;7.35;;;9.50;99.90;;;;;;5053608;28;20024;-77
2024/03/31 05:05:53;;;;;;;9.00;7.10;;;9.50;99.90;;;;;;5053847;28;20032;-77
2024/03/31 05:08:19;;;;;;;9.63;7.55;;;9.50;99.90;;;;;;5053114;28;20021;-77
2024/03/31 05:10:54;;;;;;;8.70;6.97;;;9.50;99.90;;;;;;5053493;28;20382;-77
2024/03/31 05:13:20;;;;;;;9.05;7.00;;;9.50;99.90;;;;;;5053398;28;20033;-77
2024/03/31 05:15:46;;;;;;;9.43;6.82;;;9.50;99.90;;;;;;5053320;28;20027;-77
2024/03/31 05:18:16;;;;;;;9.27;7.78;;;9.50;99.90;;;;;;5052910;28;20078;-77
2024/03/31 05:20:42;;;;;;;11.02;8.30;;;9.50;99.90;;;;;;5053225;28;20044;-77
2024/03/31 05:23:11;;;;;;;9.40;7.32;;;9.50;99.90;;;;;;5052672;28;20151;-77
2024/03/31 05:25:37;;;;;;;10.93;7.95;;;9.50;99.90;;;;;;5053093;28;20035;-77
2024/03/31 05:28:03;;;;;;;11.07;7.70;;;9.50;99.90;;;;;;5052591;28;20032;-77
2024/03/31 05:30:28;;;;;;;10.07;7.93;;;9.50;99.90;;;;;;5035296;28;20028;-77
2024/03/31 05:32:54;;;;;;;12.27;8.60;;;9.50;99.90;;;;;;5052323;28;20056;-77
2024/03/31 05:35:20;;;;;;;10.32;7.78;;;9.50;99.90;;;;;;5052570;28;20075;-77
2024/03/31 05:37:45;;;;;;;10.40;8.00;;;9.50;99.90;;;;;;5052366;28;20049;-77
2024/03/31 05:40:11;;;;;;;10.13;8.15;;;9.50;99.90;;;;;;5052947;28;20382;-77
2024/03/31 05:42:36;;;;;;;10.60;8.77;;;9.50;99.90;;;;;;5052675;28;20029;-77
2024/03/31 05:45:02;;;;;;;12.52;9.35;;;9.50;99.90;;;;;;5052717;28;20079;-77
2024/03/31 05:47:28;;;;;;;10.73;8.82;;;9.50;99.90;;;;;;5052374;28;20021;-77
2024/03/31 05:49:54;;;;;;;11.98;8.75;;;9.50;99.90;;;;;;5052908;28;20017;-77
2024/03/31 05:52:19;;;;;;;13.00;9.40;;;9.50;99.90;;;;;;5052025;28;20020;-77
2024/03/31 05:54:45;;;;;;;11.48;8.93;;;9.50;99.90;;;;;;5052822;28;20024;-77
2024/03/31 05:57:10;;;;;;;11.68;9.52;;;9.50;99.90;;;;;;5051876;28;20509;-77
2024/03/31 05:59:36;;;;;;;13.40;9.60;;;9.50;99.90;;;;;;5052645;28;20049;-77
2024/03/31 06:02:02;;;;;;;11.02;9.38;;;9.50;99.90;;;;;;5051851;28;20048;-77
2024/03/31 06:04:28;;;;;;;12.73;10.07;;;9.50;99.90;;;;;;5052725;28;20017;-78
2024/03/31 06:06:53;;;;;;;13.60;10.20;;;9.50;99.90;;;;;;5051983;28;20021;-77
2024/03/31 06:09:19;;;;;;;14.52;10.43;;;9.50;99.90;;;;;;5052557;28;20070;-77
2024/03/31 06:11:45;;;;;;;13.20;10.48;;;9.50;99.90;;;;;;5051822;28;20394;-77
2024/03/31 06:14:11;;;;;;;15.00;11.35;;;9.50;99.90;;;;;;5052318;28;20088;-78
2024/03/31 06:16:36;;;;;;;13.85;10.73;;;9.50;99.90;;;;;;5052323;28;20060;-78
2024/03/31 06:19:02;;;;;;;13.60;10.85;;;9.50;99.90;;;;;;5033905;28;20108;-78
2024/03/31 06:21:28;;;;;;;15.13;10.95;;;9.50;99.90;;;;;;5052033;28;20028;-78
2024/03/31 06:23:53;;;;;;;12.95;9.60;;;9.60;99.90;;;;;;5033736;28;20556;-77
2024/03/31 06:26:19;;;;;;;13.10;10.55;;;9.50;99.90;;;;;;5052265;28;20029;-77
2024/03/31 06:28:45;;;;;;;15.60;11.23;;;9.60;99.90;;;;;;5051676;28;20025;-77
2024/03/31 06:31:10;;;;;;;13.27;10.55;;;9.60;99.90;;;;;;5052158;28;20063;-77
2024/03/31 06:33:36;;;;;;;13.25;10.38;;;9.50;99.90;;;;;;5051454;28;20025;-77
2024/03/31 06:36:02;;;;;;;16.02;11.55;;;9.60;99.90;;;;;;5052233;28;20444;-78
2024/03/31 06:38:27;;;;;;;14.85;10.90;;;9.60;99.90;;;;;;5051166;28;20471;-78
2024/03/31 06:40:53;;;;;;;16.90;12.48;;;9.60;99.90;;;;;;5052083;28;20211;-78
2024/03/31 06:43:19;;;;;;;15.80;12.20;;;9.60;99.90;;;;;;5051419;28;20021;-78
2024/03/31 06:45:44;;;;;;;13.00;10.63;;;9.60;99.90;;;;;;5051931;28;20021;-77
2024/03/31 06:48:10;;;;;;;16.98;12.68;;;9.70;99.90;;;;;;5051214;28;20052;-77
2024/03/31 06:50:35;;;;;;;15.93;11.82;;;9.70;99.90;;;;;;5051767;28;20025;-77
2024/03/31 06:53:01;;;;;;;17.58;12.90;;;9.70;99.90;;;;;;5051130;28;20029;-77
2024/03/31 06:55:27;;;;;;;17.52;12.98;;;9.70;99.90;;;;;;5051920;28;20017;-77
2024/03/31 06:57:52;;;;;;;15.93;11.88;;;9.70;99.90;;;;;;5050814;28;20597;-77
2024/03/31 07:00:18;;;;;;;17.75;13.13;;;9.70;99.90;;;;;;5052175;28;20041;-77
2024/03/31 07:02:48;;;;;;;18.17;12.70;;;9.80;99.90;;;;;;5051142;28;20505;-77
2024/03/31 07:05:14;;;;;;;15.80;11.98;;;9.80;99.90;;;;;;5052063;28;20100;-77
2024/03/31 07:07:39;;;;;;;13.32;11.20;;;9.80;99.90;;;;;;5051090;28;20173;-77
2024/03/31 07:10:06;;;;;;;17.20;12.60;;;9.90;99.90;;;;;;5051863;28;20051;-77
2024/03/31 07:12:31;;;;;;;16.45;13.20;;;9.90;99.90;;;;;;5050902;28;20057;-77
2024/03/31 07:14:57;;;;;;;19.10;13.40;;;9.90;99.90;;;;;;5051777;28;20109;-77
2024/03/31 07:17:23;;;;;;;16.85;13.10;;;9.90;99.90;;;;;;5051182;28;20064;-78
2024/03/31 07:19:48;;;;;;;16.40;13.02;;;10.00;99.90;;;;;;5051681;28;20021;-77
2024/03/31 07:22:14;;;;;;;17.98;12.88;;;10.00;99.90;;;;;;5051259;28;20118;-77
2024/03/31 07:24:39;;;;;;;19.55;12.55;;;10.00;99.90;;;;;;5033463;28;20086;-77
2024/03/31 07:27:08;;;;;;;18.60;13.57;;;10.00;99.90;;;;;;5051248;28;20459;-77
2024/03/31 07:29:34;;;;;;;17.63;13.50;;;10.00;99.90;;;;;;5050902;28;20060;-77
2024/03/31 07:32:00;;;;;;;18.75;13.95;;;10.10;99.90;;;;;;5051607;28;20021;-77
2024/03/31 07:34:26;;;;;;;17.63;12.88;;;10.10;99.90;;;;;;5051252;28;20021;-77
2024/03/31 07:36:52;;;;;;;18.88;14.85;;;10.20;99.90;;;;;;5052029;28;20025;-77
2024/03/31 07:39:18;;;;;;;18.48;13.77;;;10.20;99.90;;;;;;5050741;28;20083;-77
2024/03/31 07:41:43;;;;;;;19.85;13.90;;;10.30;99.90;;;;;;5033542;28;20021;-77
2024/03/31 07:44:09;;;;;;;18.33;13.80;;;10.30;99.90;;;;;;5050818;28;20025;-77
2024/03/31 07:46:35;;;;;;;23.25;15.65;;;10.30;99.90;;;;;;5051485;28;20026;-77
2024/03/31 07:49:00;;;;;;;18.52;14.68;;;10.40;99.90;;;;;;5032819;28;20021;-77
2024/03/31 07:51:26;;;;;;;19.60;15.65;;;10.40;99.90;;;;;;5051447;28;20025;-77
2024/03/31 07:53:51;;;;;;;21.50;15.27;;;10.50;99.90;;;;;;5050536;28;20051;-77
2024/03/31 07:56:17;;;;;;;19.08;15.02;;;10.60;99.90;;;;;;5051306;28;20025;-77
2024/03/31 07:58:43;;;;;;;19.73;15.52;;;10.60;99.90;;;;;;5051462;28;20041;-77
2024/03/31 08:01:08;;;;;;;21.13;16.60;;;10.60;99.90;;;;;;5055020;28;20019;-77
2024/03/31 08:03:34;;;;;;;23.42;15.68;;;10.70;99.90;;;;;;5054163;28;20029;-77
2024/03/31 08:06:00;;;;;;;20.13;14.52;;;10.70;99.90;;;;;;5054881;28;20478;-77
2024/03/31 08:08:25;;;;;;;22.38;16.08;;;10.70;99.90;;;;;;5054466;28;20083;-77
2024/03/31 08:10:51;;;;;;;20.63;14.77;;;10.70;99.90;;;;;;5054719;28;20040;-77
2024/03/31 08:13:17;;;;;;;20.17;15.13;;;10.80;99.90;;;;;;5054030;28;20059;-77
2024/03/31 08:15:43;;;;;;;21.02;14.85;;;10.80;99.90;;;;;;5054919;28;20070;-77
2024/03/31 08:18:12;;;;;;;19.83;15.52;;;10.90;99.90;;;;;;5053883;28;20025;-77
2024/03/31 08:20:38;;;;;;;19.42;15.20;;;11.00;99.90;;;;;;5054487;28;20112;-77
2024/03/31 08:23:03;;;;;;;20.83;15.43;;;11.00;99.90;;;;;;5054036;28;20493;-77
2024/03/31 08:25:29;;;;;;;21.38;16.30;;;11.20;99.90;;;;;;5054131;28;20021;-77
2024/03/31 08:27:55;;;;;;;20.92;14.57;;;11.30;99.90;;;;;;5054138;28;20059;-77
2024/03/31 08:30:21;;;;;;;22.48;15.10;;;11.30;99.90;;;;;;5054129;28;20057;-77
2024/03/31 08:32:46;;;;;;;21.35;15.32;;;11.40;99.90;;;;;;5053579;28;20505;-77
2024/03/31 08:35:12;;;;;;;19.58;14.60;;;11.50;99.90;;;;;;5036366;28;20025;-77
2024/03/31 08:37:38;;;;;;;20.50;14.52;;;11.50;99.90;;;;;;5053958;28;20032;-77
2024/03/31 08:40:05;;;;;;;22.48;15.70;;;11.50;99.90;;;;;;5054131;28;20375;-76
2024/03/31 08:42:50;;;;;;;21.17;15.57;;;11.50;99.90;;;;;;5054116;28;20083;-77
2024/03/31 08:45:18;;;;;;;19.88;14.73;;;11.50;99.90;;;;;;5036348;28;20021;-77
2024/03/31 08:47:45;;;;;;;17.55;13.95;;;11.50;99.90;;;;;;5053763;28;20035;-76
2024/03/31 08:50:12;;;;;;;19.27;14.85;;;11.60;99.90;;;;;;5054057;28;20045;-77
2024/03/31 08:52:38;;;;;;;24.25;14.73;;;11.70;99.90;;;;;;5053323;28;20486;-76
2024/03/31 08:55:06;;;;;;;21.30;14.65;;;11.80;99.90;;;;;;5054192;28;20082;-77
2024/03/31 08:57:32;;;;;;;19.85;14.38;;;11.90;99.90;;;;;;5053305;28;20040;-77
2024/03/31 08:59:57;;;;;;;18.05;13.00;;;12.00;99.90;;;;;;5053691;28;20064;-77
2024/03/31 09:02:24;;;;;;;20.77;13.27;;;12.00;99.90;;;;;;5053484;28;20048;-77
2024/03/31 09:04:51;;;;;;;20.90;14.38;;;12.00;99.90;;;;;;5053635;28;20474;-77
2024/03/31 09:07:17;;;;;;;19.40;13.63;;;12.00;99.90;;;;;;5035678;28;20049;-76
2024/03/31 09:09:43;;;;;;;19.42;13.63;;;12.10;99.90;;;;;;5052504;28;20032;-77
2024/03/31 09:12:10;;;;;;;17.73;12.13;;;12.10;99.90;;;;;;5053373;28;20386;-77
2024/03/31 09:14:39;;;;;;;21.42;14.05;;;12.20;99.90;;;;;;5052760;28;20017;-77
2024/03/31 09:17:09;;;;;;;20.63;14.60;;;12.20;99.90;;;;;;5053591;28;20037;-77
2024/03/31 09:19:35;;;;;;;21.77;13.30;;;12.20;99.90;;;;;;5052296;28;20032;-77
2024/03/31 09:22:01;;;;;;;18.60;13.13;;;12.30;99.90;;;;;;5053391;28;20021;-76
2024/03/31 09:24:28;;;;;;;18.90;14.02;;;12.40;99.90;;;;;;5052621;28;20470;-77
2024/03/31 09:26:54;;;;;;;19.10;12.25;;;12.50;99.90;;;;;;5053413;28;20025;-76
2024/03/31 09:29:20;;;;;;;19.58;13.02;;;12.60;99.90;;;;;;5052576;28;20025;-77
2024/03/31 09:31:49;;;;;;;18.73;13.85;;;12.80;99.90;;;;;;5053225;28;20021;-77
2024/03/31 09:34:15;;;;;;;19.92;13.15;;;12.90;99.90;;;;;;5052346;28;20029;-77
2024/03/31 09:36:41;;;;;;;20.95;12.68;;;13.00;99.90;;;;;;5035058;28;20405;-76
2024/03/31 09:39:06;;;;;;;21.30;14.15;;;13.10;99.90;;;;;;5034522;28;20056;-76
2024/03/31 09:41:34;;;;;;;20.10;12.57;;;13.20;99.90;;;;;;5052987;28;20505;-77
2024/03/31 09:44:01;;;;;;;21.00;11.65;;;13.20;99.90;;;;;;5052504;28;20047;-77
2024/03/31 09:46:27;;;;;;;18.52;12.65;;;13.40;99.90;;;;;;5052759;28;20029;-77
2024/03/31 09:49:07;;;;;;;22.33;13.68;;;13.40;99.90;;;;;;5052376;28;20025;-77
2024/03/31 09:51:41;;;;;;;18.23;11.65;;;13.50;99.90;;;;;;5052580;28;20029;-77
2024/03/31 09:54:13;;;;;;;18.60;12.85;;;13.60;99.90;;;;;;5052433;28;20033;-77
2024/03/31 09:56:48;;;;;;;18.45;12.27;;;13.70;99.90;;;;;;5052787;28;20075;-77
2024/03/31 09:59:15;;;;;;;14.93;11.73;;;13.80;99.90;;;;;;5034196;28;20041;-77
2024/03/31 10:01:45;;;;;;;17.17;11.73;;;13.90;99.90;;;;;;5052491;28;20037;-76
2024/03/31 10:04:28;;;;;;;20.95;12.30;;;14.10;99.90;;;;;;5052264;28;20482;-77
2024/03/31 10:06:54;;;;;;;16.85;11.45;;;14.10;99.90;;;;;;5052657;28;20021;-76
2024/03/31 10:09:20;;;;;;;20.73;12.27;;;14.30;99.90;;;;;;5052241;28;20070;-75
2024/03/31 10:11:48;;;;;;;16.23;12.13;;;14.40;99.90;;;;;;5052343;28;20033;-75
2024/03/31 10:14:16;;;;;;;17.23;11.40;;;14.50;99.90;;;;;;5051925;28;20593;-75
2024/03/31 10:16:42;;;;;;;16.58;10.70;;;14.60;99.90;;;;;;5052054;28;20052;-75
2024/03/31 10:19:08;;;;;;;14.60;10.32;;;14.70;99.90;;;;;;5051872;28;20455;-75
2024/03/31 10:21:33;;;;;;;21.55;10.73;;;14.70;99.90;;;;;;5051624;28;20056;-76
2024/03/31 10:24:00;;;;;;;18.88;10.65;;;14.80;99.90;;;;;;5051803;28;20013;-75
2024/03/31 10:26:27;;;;;;;15.73;9.38;;;14.90;99.90;;;;;;5051989;28;20031;-75
2024/03/31 10:28:57;;;;;;;14.70;7.72;;;14.90;99.90;;;;;;5051610;28;20048;-75
2024/03/31 10:31:22;;;;;;;12.52;6.47;;;15.10;99.90;;;;;;5051901;28;20451;-75
2024/03/31 10:33:48;;;;;;;13.90;7.10;;;15.20;99.90;;;;;;5051892;28;20040;-74
2024/03/31 10:36:14;;;;;;;13.88;7.20;;;15.30;99.90;;;;;;5052050;28;20021;-74
2024/03/31 10:38:44;;;;;;;11.68;6.97;;;15.40;99.90;;;;;;5051406;28;20031;-75
2024/03/31 10:41:13;;;;;;;11.20;6.05;;;15.50;99.90;;;;;;5051765;28;20025;-75
2024/03/31 10:43:39;;;;;;;12.68;6.80;;;15.60;99.90;;;;;;5051224;28;20017;-75
2024/03/31 10:46:08;;;;;;;10.80;6.50;;;15.60;99.90;;;;;;5051749;28;20479;-75
2024/03/31 10:48:33;;;;;;;16.80;6.00;;;15.70;99.90;;;;;;5051445;28;20025;-75
2024/03/31 10:51:28;;;;;;;12.25;5.85;;;15.80;99.90;;;;;;5051725;28;20037;-75
2024/03/31 10:53:58;;;;;;;11.80;5.40;;;15.90;99.90;;;;;;5034180;28;20033;-74
2024/03/31 10:56:28;;;;;;;15.57;6.30;;;15.90;99.90;;;;;;5050408;28;20025;-78
2024/03/31 10:59:14;;;;;;;12.88;5.32;;;16.00;99.90;;;;;;5050965;28;20136;-75
2024/03/31 11:01:40;;;;;;;12.43;5.75;;;16.20;99.90;;;;;;5051234;28;20041;-75
2024/03/31 11:04:19;;;;;;;13.40;5.05;;;16.30;99.90;;;;;;5051723;28;20104;-75
2024/03/31 11:06:46;;;;;;;14.05;5.82;;;16.40;99.90;;;;;;5051700;28;20036;-75
2024/03/31 11:09:13;;;;;;;16.90;5.70;;;16.40;99.90;;;;;;5033332;28;20032;-75
2024/03/31 11:11:39;;;;;;;9.68;5.32;;;16.40;99.90;;;;;;5051700;28;20219;-75
2024/03/31 11:14:08;;;;;;;16.05;5.25;;;16.50;99.90;;;;;;5051002;28;20044;-75
2024/03/31 11:16:35;;;;;;;13.18;5.00;;;16.60;99.90;;;;;;5051768;28;20094;-75
2024/03/31 11:19:02;;;;;;;12.25;4.55;;;16.80;99.90;;;;;;5050820;28;20107;-75
2024/03/31 11:21:31;;;;;;;14.70;5.10;;;16.80;99.90;;;;;;5033430;28;20486;-75
2024/03/31 11:24:00;;;;;;;10.13;5.28;;;16.90;99.90;;;;;;5032994;28;20563;-75
2024/03/31 11:26:26;;;;;;;13.88;4.93;;;17.00;99.90;;;;;;5051494;28;20075;-76
2024/03/31 11:28:54;;;;;;;12.57;5.15;;;17.10;99.90;;;;;;5050995;28;20055;-76
2024/03/31 11:31:20;;;;;;;13.95;4.78;;;17.20;99.90;;;;;;5051417;28;20044;-75
2024/03/31 11:33:48;;;;;;;11.52;5.60;;;17.30;99.90;;;;;;5052106;28;20246;-75
2024/03/31 11:36:15;;;;;;;11.95;5.00;;;17.40;99.90;;;;;;5055196;28;20029;-75
2024/03/31 11:38:41;;;;;;;12.68;4.63;;;17.50;99.90;;;;;;5054694;28;20071;-75
2024/03/31 11:41:08;;;;;;;13.48;4.80;;;17.60;99.90;;;;;;5055141;28;20029;-74
2024/03/31 11:43:34;;;;;;;12.40;4.65;;;17.70;99.90;;;;;;5053090;28;20067;-75
2024/03/31 11:46:00;;;;;;;13.43;4.00;;;17.80;99.90;;;;;;5055179;28;20017;-75
2024/03/31 11:48:30;;;;;;;11.80;4.40;;;17.90;99.90;;;;;;5054311;28;20403;-75
2024/03/31 11:50:56;;;;;;;9.32;3.88;;;18.00;99.90;;;;;;5055259;28;20035;-75
2024/03/31 11:53:21;;;;;;;12.02;3.67;;;18.00;99.90;;;;;;5054122;28;20020;-75
2024/03/31 11:55:48;;;;;;;13.63;4.07;;;18.20;99.90;;;;;;5055076;28;20033;-75
2024/03/31 11:58:14;;;;;;;10.45;3.80;;;18.20;99.90;;;;;;5054041;28;20044;-75
2024/03/31 12:00:49;;;;;;;10.45;3.67;;;18.20;99.90;;;;;;5054905;28;20449;-75
2024/03/31 12:03:15;;;;;;;11.27;4.10;;;18.20;99.90;;;;;;5054038;28;20494;-75
2024/03/31 12:05:46;;;;;;;16.00;4.20;;;18.20;99.90;;;;;;5055112;28;20013;-75
2024/03/31 12:08:11;;;;;;;;;;;18.10;99.90;;;;;;5054366;28;20029;-75
2024/03/31 12:10:37;;;;;;;13.10;3.28;;;18.10;99.90;;;;;;5054841;28;19912;-75
2024/03/31 12:13:04;;;;;;;11.38;3.65;;;18.10;99.90;;;;;;5053716;28;20083;-74
2024/03/31 12:15:30;;;;;;;11.40;3.92;;;18.00;99.90;;;;;;5054556;28;20024;-76
2024/03/31 12:17:59;;;;;;;13.80;3.80;;;18.10;99.90;;;;;;5053710;28;20032;-75
2024/03/31 12:20:25;;;;;;;8.70;3.08;;;18.00;99.90;;;;;;5054595;28;20024;-75
2024/03/31 12:22:51;;;;;;;14.52;3.47;;;18.00;99.90;;;;;;5054250;28;20426;-75
2024/03/31 12:25:18;;;;;;;13.23;3.33;;;18.00;99.90;;;;;;5054296;28;20047;-75
2024/03/31 12:27:45;;;;;;;9.88;3.33;;;18.00;99.90;;;;;;5054113;28;20467;-75
2024/03/31 12:30:11;;;;;;;12.70;3.25;;;18.10;99.90;;;;;;5053678;28;20056;-74
2024/03/31 12:32:37;;;;;;;11.15;3.63;;;18.00;99.90;;;;;;5053969;28;20048;-75
2024/03/31 12:35:04;;;;;;;12.55;3.30;;;18.10;99.90;;;;;;5053768;28;20384;-75